.
WxDataArchive / Data Records for 2013-07-17
2013-07-16 July 2013 2013-07-18

Data Records for Wednesday, 17 July 2013

Time	Temp	Chill	HIndex	Humid	Dewpt	 Wind 	HiWind	WindDir	Rain 	Barom 
-----	----	-----	------	-----	-----	------	------	-------	-----	----- 
00:00	77.9	77.9	80.1	80	71.2	0	0	---	0.00	30.249 
00:05	77.9	77.9	80.1	80	71.2	0	0	---	0.00	30.249 
00:10	77.7	77.7	79.8	80	71.0	0	0	---	0.00	30.249 
00:15	77.6	77.6	79.6	81	71.3	0	0	---	0.00	30.249 
00:20	77.6	77.6	79.6	81	71.3	0	0	---	0.00	30.249 
00:25	77.4	77.4	79.2	81	71.1	0	0	---	0.00	30.249 
00:30	77.4	77.4	79.2	81	71.1	0	0	---	0.00	30.251 
00:35	77.2	77.2	78.9	81	70.9	0	0	---	0.00	30.251 
00:40	77.2	77.2	78.9	82	71.3	0	0	---	0.00	30.251 
00:45	77.2	77.2	78.9	82	71.3	0	0	---	0.00	30.250 
00:50	77.2	77.2	78.9	82	71.3	0	0	---	0.00	30.250 
00:55	77.0	77.0	78.5	82	71.1	0	0	---	0.00	30.250 
01:00	77.0	77.0	78.5	82	71.1	0	0	---	0.00	30.249 
01:05	77.0	77.0	78.5	83	71.4	0	0	---	0.00	30.249 
01:10	77.0	77.0	78.5	83	71.4	0	0	---	0.00	30.249 
01:15	77.0	77.0	78.5	83	71.4	0	0	---	0.00	30.249 
01:20	77.0	77.0	78.5	83	71.4	0	0	---	0.00	30.249 
01:25	77.0	77.0	78.5	83	71.4	0	0	---	0.00	30.249 
01:30	76.8	76.8	78.1	83	71.2	0	0	---	0.00	30.251 
01:35	76.8	76.8	78.1	83	71.2	0	0	---	0.00	30.251 
01:40	76.7	76.7	77.9	83	71.1	0	0	---	0.00	30.251 
01:45	76.5	76.5	77.6	83	70.9	0	0	---	0.00	30.255 
01:50	76.5	76.5	77.6	83	70.9	0	0	---	0.00	30.255 
01:55	76.3	76.3	77.2	84	71.1	0	0	---	0.00	30.255 
02:00	76.1	76.1	76.8	84	70.9	0	0	---	0.00	30.254 
02:05	76.0	76.0	76.7	84	70.8	0	0	---	0.00	30.254 
02:10	76.0	76.0	76.7	84	70.8	0	0	---	0.00	30.254 
02:15	75.8	75.8	76.3	84	70.6	0	0	---	0.00	30.254 
02:20	75.6	75.6	76.0	84	70.4	0	0	---	0.00	30.254 
02:25	75.4	75.4	75.5	85	70.6	0	0	---	0.00	30.254 
02:30	75.4	75.4	75.5	85	70.6	0	0	---	0.00	30.251 
02:35	75.3	75.3	75.4	85	70.5	0	0	---	0.00	30.251 
02:40	75.3	75.3	75.4	85	70.5	0	0	---	0.00	30.251 
02:45	75.1	75.1	75.0	85	70.3	0	0	---	0.00	30.253 
02:50	75.1	75.1	74.9	86	70.6	0	0	---	0.00	30.253 
02:55	74.9	74.9	74.9	86	70.4	0	0	---	0.00	30.253 
03:00	74.7	74.7	74.7	86	70.2	0	0	---	0.00	30.257 
03:05	74.7	74.7	74.7	87	70.6	0	0	---	0.00	30.257 
03:10	74.6	74.6	74.6	87	70.5	0	0	---	0.00	30.257 
03:15	74.6	74.6	74.6	87	70.5	0	0	---	0.00	30.254 
03:20	74.4	74.4	74.4	87	70.3	0	0	---	0.00	30.254 
03:25	74.2	74.2	74.2	87	70.1	0	0	---	0.00	30.254 
03:30	74.0	74.0	74.0	88	70.2	0	0	---	0.00	30.255 
03:35	74.0	74.0	74.0	88	70.2	0	0	---	0.00	30.255 
03:40	74.0	74.0	74.0	88	70.2	0	0	---	0.00	30.255 
03:45	73.9	73.9	73.9	88	70.1	0	0	---	0.00	30.253 
03:50	73.9	73.9	73.9	88	70.1	0	0	---	0.00	30.253 
03:55	73.7	73.7	73.7	88	69.9	0	0	---	0.00	30.253 
04:00	73.7	73.7	73.7	88	69.9	0	0	---	0.00	30.257 
04:05	73.7	73.7	73.7	89	70.2	0	0	---	0.00	30.257 
04:10	73.7	73.7	73.7	89	70.2	0	0	---	0.00	30.257 
04:15	73.5	73.5	73.5	89	70.0	0	0	---	0.00	30.261 
04:20	73.7	73.7	73.7	89	70.2	0	0	---	0.00	30.261 
04:25	73.7	73.7	73.7	89	70.2	0	0	---	0.00	30.261 
04:30	73.7	73.7	73.7	89	70.2	0	0	---	0.00	30.264 
04:35	73.7	73.7	73.7	89	70.2	0	0	---	0.00	30.264 
04:40	73.7	73.7	73.7	89	70.2	0	0	---	0.00	30.264 
04:45	73.9	73.9	73.9	89	70.4	0	0	---	0.00	30.264 
04:50	74.0	74.0	74.0	88	70.2	0	1	292	0.00	30.264 
04:55	74.0	74.0	74.0	88	70.2	0	0	---	0.00	30.264 
05:00	74.0	74.0	74.0	88	70.2	0	0	---	0.00	30.258 
05:05	73.9	73.9	73.9	88	70.1	0	0	---	0.00	30.258 
05:10	73.9	73.9	73.9	88	70.1	0	0	---	0.00	30.258 
05:15	73.7	73.7	73.7	88	69.9	0	0	---	0.00	30.260 
05:20	73.5	73.5	73.5	88	69.7	0	0	---	0.00	30.260 
05:25	73.5	73.5	73.5	88	69.7	0	0	---	0.00	30.260 
05:30	73.5	73.5	73.5	88	69.7	0	0	---	0.00	30.263 
05:35	73.5	73.5	73.5	88	69.7	0	0	---	0.00	30.263 
05:40	73.3	73.3	73.3	88	69.5	0	0	---	0.00	30.263 
05:45	73.3	73.3	73.3	88	69.5	0	0	---	0.00	30.265 
05:50	73.3	73.3	73.3	88	69.5	0	0	---	0.00	30.265 
05:55	73.2	73.2	73.2	88	69.4	0	0	---	0.00	30.265 
06:00	73.2	73.2	73.2	88	69.4	0	0	---	0.00	30.268 
06:05	73.0	73.0	73.0	88	69.2	0	0	---	0.00	30.268 
06:10	73.0	73.0	73.0	88	69.2	0	0	---	0.00	30.268 
06:15	72.8	72.8	72.8	88	69.0	0	0	---	0.00	30.273 
06:20	72.8	72.8	72.8	89	69.4	0	0	---	0.00	30.273 
06:25	72.8	72.8	72.8	89	69.4	0	0	---	0.00	30.273 
06:30	72.8	72.8	72.8	89	69.4	0	0	---	0.00	30.277 
06:35	72.8	72.8	72.8	89	69.4	0	0	---	0.00	30.277 
06:40	72.8	72.8	72.8	89	69.4	0	0	---	0.00	30.277 
06:45	73.0	73.0	73.0	89	69.6	0	0	---	0.00	30.281 
06:50	73.2	73.2	73.2	89	69.8	0	0	---	0.00	30.281 
06:55	73.3	73.3	73.3	88	69.5	0	0	---	0.00	30.281 
07:00	73.7	73.7	73.7	88	69.9	0	0	---	0.00	30.281 
07:05	73.9	73.9	73.9	87	69.8	0	0	---	0.00	30.281 
07:10	74.2	74.2	74.2	87	70.1	0	0	---	0.00	30.281 
07:15	74.4	74.4	74.4	86	69.9	0	0	---	0.00	30.285 
07:20	74.7	74.7	74.7	86	70.2	0	0	---	0.00	30.285 
07:25	74.9	74.9	74.9	85	70.1	0	0	---	0.00	30.285 
07:30	75.3	75.3	75.5	84	70.1	0	0	---	0.00	30.288 
07:35	75.6	75.6	76.0	84	70.4	0	0	---	0.00	30.288 
07:40	76.0	76.0	76.7	83	70.4	0	0	---	0.00	30.288 
07:45	76.3	76.3	77.3	82	70.4	0	0	---	0.00	30.293 
07:50	76.7	76.7	78.0	81	70.4	0	0	---	0.00	30.293 
07:55	77.0	77.0	78.6	80	70.3	0	0	---	0.00	30.293 
08:00	77.4	77.4	79.2	80	70.7	0	0	---	0.00	30.288 
08:05	77.7	77.7	79.8	79	70.7	0	0	---	0.00	30.288 
08:10	78.3	78.3	80.8	78	70.9	0	0	---	0.00	30.288 
08:15	78.6	78.6	81.2	77	70.8	0	0	---	0.00	30.291 
08:20	79.0	79.0	81.9	76	70.8	0	0	---	0.00	30.291 
08:25	79.4	79.4	82.6	76	71.2	0	0	---	0.00	30.291 
08:30	79.8	79.8	83.2	75	71.1	0	0	---	0.00	30.291 
08:35	80.1	80.1	83.6	74	71.0	0	0	---	0.00	30.291 
08:40	80.3	80.3	84.0	74	71.2	0	0	---	0.00	30.291 
08:45	80.7	80.7	84.6	73	71.2	0	0	---	0.00	30.293 
08:50	81.1	81.1	85.2	72	71.2	1	3	292	0.00	30.293 
08:55	81.2	81.2	85.2	71	70.9	1	2	292	0.00	30.293 
09:01	81.6	81.6	85.9	71	71.3	0	1	292	0.00	30.293 
09:05	82.2	82.2	86.8	70	71.4	0	3	292	0.00	30.296 
09:10	82.6	82.6	87.1	68	70.9	1	3	292	0.00	30.296 
09:15	82.8	82.8	87.5	68	71.1	1	4	292	0.00	30.298 
09:20	83.0	83.0	87.6	67	70.9	1	3	292	0.00	30.298 
09:25	83.4	83.4	87.8	65	70.4	1	3	292	0.00	30.298 
09:30	83.4	83.4	87.8	65	70.4	2	3	292	0.00	30.296 
09:35	83.8	83.8	88.8	66	71.2	1	3	292	0.00	30.296 
09:40	84.0	84.0	88.6	64	70.5	2	4	292	0.00	30.296 
09:45	84.1	84.1	88.8	64	70.6	1	2	292	0.00	30.294 
09:50	84.5	84.5	89.6	64	71.0	1	3	292	0.00	30.294 
09:55	84.5	84.5	89.3	63	70.5	2	4	292	0.00	30.294 
10:00	84.7	84.7	89.6	63	70.7	2	4	292	0.00	30.291 
10:05	84.9	84.9	89.7	62	70.4	1	4	292	0.00	30.291 
10:10	85.3	85.3	90.8	63	71.2	1	3	292	0.00	30.291 
10:15	85.5	85.5	90.8	62	71.0	2	4	292	0.00	30.287 
10:20	85.5	85.5	90.8	62	71.0	2	4	270	0.00	30.287 
10:25	85.7	85.7	90.9	61	70.7	2	3	270	0.00	30.287 
10:30	85.9	85.9	91.6	62	71.3	1	4	270	0.00	30.281 
10:35	86.3	86.3	92.4	62	71.7	1	3	292	0.00	30.281 
10:40	86.1	86.1	91.7	61	71.0	2	4	292	0.00	30.281 
10:45	86.1	86.1	91.3	60	70.6	2	4	292	0.00	30.281 
10:50	86.3	86.3	92.1	61	71.2	1	3	292	0.00	30.281 
10:55	86.3	86.3	92.1	61	71.2	2	4	292	0.00	30.281 
11:00	86.5	86.5	92.5	61	71.4	1	4	292	0.00	30.280 
11:05	86.7	86.7	92.9	61	71.6	1	3	292	0.00	30.280 
11:10	86.7	86.7	92.5	60	71.1	2	5	315	0.00	30.280 
11:15	87.0	87.0	93.1	60	71.4	2	4	270	0.00	30.280 
11:20	87.0	87.0	92.7	59	70.9	2	5	270	0.00	30.280 
11:25	87.0	87.0	92.7	59	70.9	2	3	270	0.00	30.280 
11:30	87.4	87.4	93.0	58	70.8	2	4	292	0.00	30.279 
11:35	87.4	87.4	93.0	58	70.8	1	4	292	0.00	30.279 
11:40	87.2	87.2	93.1	59	71.1	1	3	292	0.00	30.279 
11:45	87.2	87.2	92.7	58	70.6	1	2	292	0.00	30.280 
11:50	87.4	87.4	93.5	59	71.3	1	2	292	0.00	30.280 
11:55	87.8	87.8	93.8	58	71.1	0	3	292	0.00	30.280 
12:00	88.2	88.2	95.1	59	72.0	1	3	292	0.00	30.278 
12:05	88.4	88.4	94.6	57	71.2	1	4	292	0.00	30.278 
12:10	88.6	88.6	94.6	56	70.9	1	4	292	0.00	30.278 
12:15	89.0	89.0	94.5	54	70.2	1	3	292	0.00	30.277 
12:20	88.6	88.6	93.3	53	69.2	1	2	292	0.00	30.277 
12:25	87.6	87.6	93.0	57	70.4	1	3	292	0.00	30.277 
12:30	86.7	86.7	92.1	59	70.6	1	3	292	0.00	30.276 
12:35	87.2	87.2	93.5	60	71.6	1	3	292	0.00	30.276 
12:40	87.8	87.8	92.6	55	69.6	1	3	292	0.00	30.276 
12:45	88.8	88.8	95.0	56	71.0	1	5	270	0.00	30.265 
12:50	89.0	89.0	94.9	55	70.7	2	4	315	0.00	30.265 
12:55	89.0	89.0	95.4	56	71.2	1	3	270	0.00	30.265 
13:00	89.3	89.3	96.0	56	71.5	1	4	270	0.00	30.266 
13:05	89.3	89.3	95.1	54	70.4	1	3	292	0.00	30.266 
13:10	88.6	88.6	93.3	53	69.2	2	4	292	0.00	30.266 
13:15	87.8	87.8	92.6	55	69.6	1	2	292	0.00	30.264 
13:20	88.0	88.0	94.3	58	71.3	1	3	292	0.00	30.264 
13:25	88.6	88.6	94.6	56	70.9	1	3	292	0.00	30.264 
13:30	88.8	88.8	94.5	55	70.5	0	3	292	0.00	30.262 
13:35	89.0	89.0	94.9	55	70.7	0	3	292	0.00	30.262 
13:40	89.5	89.5	95.5	54	70.6	0	2	292	0.00	30.262 
13:45	89.9	89.9	95.3	52	69.9	2	3	292	0.00	30.257 
13:50	89.7	89.7	94.0	50	68.5	1	4	315	0.00	30.257 
13:55	89.0	89.0	92.8	50	67.9	1	3	292	0.00	30.257 
14:00	88.8	88.8	93.2	52	68.9	0	2	292	0.00	30.252 
14:05	89.3	89.3	94.2	52	69.3	1	3	292	0.00	30.252 
14:10	89.9	89.9	95.3	52	69.9	0	2	45	0.00	30.252 
14:15	90.5	90.5	95.5	50	69.3	0	2	0	0.00	30.247 
14:20	91.0	91.0	96.5	50	69.7	1	4	0	0.00	30.247 
14:25	91.0	91.0	96.5	50	69.7	1	3	338	0.00	30.247 
14:30	91.4	91.4	97.3	50	70.1	1	3	338	0.00	30.235 
14:35	91.4	91.4	95.8	47	68.3	1	3	338	0.00	30.235 
14:40	91.4	91.4	95.8	47	68.3	1	3	338	0.00	30.235 
14:45	91.4	91.4	96.3	48	68.9	1	3	180	0.00	30.232 
14:50	91.4	91.4	96.3	48	68.9	0	2	270	0.00	30.232 
14:55	91.4	91.4	95.4	46	67.7	1	2	270	0.00	30.232 
15:00	91.4	91.4	95.8	47	68.3	2	5	315	0.00	30.225 
15:05	91.4	91.4	95.8	47	68.3	1	4	315	0.00	30.225 
15:10	91.6	91.6	95.3	45	67.2	1	4	292	0.00	30.225 
15:15	91.8	91.8	96.6	47	68.7	1	3	292	0.00	30.218 
15:20	92.3	92.3	97.0	46	68.5	0	1	292	0.00	30.218 
15:25	92.3	92.3	98.1	48	69.7	1	4	292	0.00	30.218 
15:30	91.6	91.6	96.7	48	69.1	1	4	292	0.00	30.215 
15:35	90.7	90.7	95.0	48	68.3	2	5	292	0.00	30.215 
15:40	90.5	90.5	95.1	49	68.7	1	3	270	0.00	30.215 
15:45	90.5	90.5	96.0	51	69.9	2	4	270	0.00	30.211 
15:50	91.2	91.2	95.0	46	67.5	1	3	270	0.00	30.211 
15:55	91.8	91.8	96.6	47	68.7	2	5	270	0.00	30.211 
16:00	92.1	92.1	97.7	48	69.5	2	4	292	0.00	30.208 
16:05	92.1	92.1	97.7	48	69.5	2	5	315	0.00	30.208 
16:10	91.6	91.6	96.7	48	69.1	2	4	315	0.00	30.208 
16:15	91.2	91.2	95.9	48	68.7	2	6	338	0.00	30.204 
16:20	91.2	91.2	96.4	49	69.3	2	4	270	0.00	30.204 
16:25	91.2	91.2	95.9	48	68.7	2	5	315	0.00	30.204 
16:30	91.6	91.6	96.7	48	69.1	2	4	315	0.00	30.202 
16:35	91.8	91.8	97.1	48	69.3	1	4	315	0.00	30.202 
16:40	92.1	92.1	96.7	46	68.3	2	4	292	0.00	30.202 
16:45	92.1	92.1	97.2	47	68.9	2	3	292	0.00	30.196 
16:50	91.8	91.8	97.1	48	69.3	2	4	315	0.00	30.196 
16:55	92.1	92.1	96.7	46	68.3	2	3	292	0.00	30.196 
17:00	92.1	92.1	97.2	47	68.9	2	4	292	0.00	30.191 
17:05	92.1	92.1	96.7	46	68.3	2	4	292	0.00	30.191 
17:10	92.3	92.3	97.6	47	69.1	1	3	270	0.00	30.191 
17:15	92.1	92.1	97.2	47	68.9	2	4	315	0.00	30.186 
17:20	91.8	91.8	96.6	47	68.7	1	4	292	0.00	30.186 
17:25	91.8	91.8	96.1	46	68.0	1	4	292	0.00	30.186 
17:30	91.0	91.0	95.6	48	68.5	2	4	292	0.00	30.182 
17:35	90.5	90.5	95.5	50	69.3	1	3	292	0.00	30.182 
17:40	90.5	90.5	95.1	49	68.7	1	3	292	0.00	30.182 
17:45	91.0	91.0	95.6	48	68.5	2	3	292	0.00	30.177 
17:50	91.2	91.2	95.9	48	68.7	2	5	270	0.00	30.177 
17:55	91.6	91.6	96.2	47	68.5	1	3	292	0.00	30.177 
18:00	91.6	91.6	95.7	46	67.8	2	5	315	0.00	30.173 
18:05	91.4	91.4	96.3	48	68.9	2	4	270	0.00	30.173 
18:10	91.4	91.4	96.3	48	68.9	1	3	338	0.00	30.173 
18:15	91.2	91.2	95.9	48	68.7	1	2	338	0.00	30.171 
18:20	90.7	90.7	95.5	49	68.9	1	3	338	0.00	30.171 
18:25	90.5	90.5	95.1	49	68.7	1	4	315	0.00	30.171 
18:30	90.1	90.1	94.3	49	68.3	2	4	292	0.00	30.167 
18:35	89.9	89.9	94.4	50	68.7	1	3	292	0.00	30.167 
18:40	90.1	90.1	95.2	51	69.5	1	6	292	0.00	30.167 
18:45	90.1	90.1	95.2	51	69.5	2	5	270	0.00	30.166 
18:50	90.1	90.1	94.8	50	68.9	2	4	292	0.00	30.166 
18:55	89.9	89.9	94.4	50	68.7	2	3	292	0.00	30.166 
19:00	89.9	89.9	94.4	50	68.7	1	4	292	0.00	30.164 
19:05	89.9	89.9	94.9	51	69.3	1	3	292	0.00	30.164 
19:10	89.9	89.9	94.9	51	69.3	1	3	292	0.00	30.164 
19:15	89.7	89.7	94.5	51	69.1	1	3	292	0.00	30.163 
19:20	89.5	89.5	94.1	51	68.9	1	3	292	0.00	30.163 
19:25	89.5	89.5	94.5	52	69.5	1	3	292	0.00	30.163 
19:30	89.3	89.3	93.7	51	68.8	1	3	292	0.00	30.158 
19:35	89.0	89.0	94.0	53	69.6	2	5	292	0.00	30.158 
19:40	89.0	89.0	94.0	53	69.6	1	3	270	0.00	30.158 
19:45	88.8	88.8	93.7	53	69.4	1	3	270	0.00	30.164 
19:50	88.6	88.6	93.7	54	69.8	1	3	270	0.00	30.164 
19:55	88.6	88.6	94.1	55	70.3	1	2	270	0.00	30.164 
20:00	88.4	88.4	93.3	54	69.6	1	4	270	0.00	30.161 
20:05	88.4	88.4	93.7	55	70.1	1	3	270	0.00	30.161 
20:10	88.2	88.2	93.4	55	70.0	1	2	270	0.00	30.161 
20:15	88.2	88.2	93.8	56	70.5	0	2	270	0.00	30.159 
20:20	88.0	88.0	93.4	56	70.3	0	2	270	0.00	30.159 
20:25	87.8	87.8	93.0	56	70.1	0	1	270	0.00	30.159 
20:30	87.6	87.6	92.6	56	69.9	0	1	270	0.00	30.164 
20:35	87.4	87.4	92.6	57	70.3	0	1	270	0.00	30.164 
20:40	87.4	87.4	92.6	57	70.3	0	1	270	0.00	30.164 
20:45	87.2	87.2	92.3	57	70.1	0	1	270	0.00	30.163 
20:50	87.0	87.0	92.3	58	70.4	0	1	270	0.00	30.163 
20:55	86.7	86.7	92.1	59	70.6	0	0	---	0.00	30.163 
21:00	86.5	86.5	91.7	59	70.4	0	0	---	0.00	30.160 
21:05	86.1	86.1	91.3	60	70.6	0	1	270	0.00	30.160 
21:10	85.9	85.9	90.9	60	70.4	0	0	---	0.00	30.160 
21:15	85.7	85.7	90.9	61	70.7	0	0	---	0.00	30.156 
21:20	85.5	85.5	90.5	61	70.5	0	0	---	0.00	30.156 
21:25	85.3	85.3	90.5	62	70.8	0	0	---	0.00	30.156 
21:30	85.1	85.1	90.4	63	71.1	0	0	---	0.00	30.153 
21:35	84.7	84.7	90.0	64	71.1	0	0	---	0.00	30.153 
21:40	84.3	84.3	89.2	64	70.8	0	0	---	0.00	30.153 
21:45	84.1	84.1	89.1	65	71.0	0	0	---	0.00	30.159 
21:50	83.8	83.8	88.8	66	71.2	0	0	---	0.00	30.159 
21:55	83.4	83.4	88.4	67	71.3	0	0	---	0.00	30.159 
22:00	83.0	83.0	87.6	67	70.9	0	0	---	0.00	30.161 
22:05	82.6	82.6	87.1	68	70.9	0	0	---	0.00	30.161 
22:10	82.4	82.4	87.0	69	71.2	0	0	---	0.00	30.161 
22:15	82.0	82.0	86.2	69	70.8	0	0	---	0.00	30.164 
22:20	81.8	81.8	86.1	70	71.0	0	0	---	0.00	30.164 
22:25	81.6	81.6	85.9	71	71.3	0	0	---	0.00	30.164 
22:30	81.4	81.4	85.7	72	71.5	0	0	---	0.00	30.166 
22:35	81.2	81.2	85.5	73	71.7	0	0	---	0.00	30.166 
22:40	81.1	81.1	85.3	73	71.6	0	0	---	0.00	30.166 
22:45	80.9	80.9	85.1	74	71.8	0	0	---	0.00	30.166 
22:50	80.9	80.9	85.3	75	72.2	0	0	---	0.00	30.166 
22:55	80.9	80.9	85.3	75	72.2	0	0	---	0.00	30.166 
23:00	80.7	80.7	84.9	75	72.0	0	0	---	0.00	30.167 
23:05	80.5	80.5	84.7	76	72.2	0	0	---	0.00	30.167 
23:10	80.5	80.5	84.7	76	72.2	0	0	---	0.00	30.167 
23:15	80.3	80.3	84.3	76	72.0	0	0	---	0.00	30.167 
23:20	80.1	80.1	83.9	76	71.8	0	0	---	0.00	30.167 
23:25	80.1	80.1	84.0	77	72.2	0	0	---	0.00	30.167 
23:30	79.8	79.8	83.6	78	72.3	0	0	---	0.00	30.168 
23:35	79.6	79.6	83.2	78	72.1	0	0	---	0.00	30.168 
23:40	79.4	79.4	82.8	78	71.9	0	0	---	0.00	30.168 
23:45	79.4	79.4	82.8	78	71.9	0	0	---	0.00	30.170 
23:50	79.2	79.2	82.5	79	72.1	0	0	---	0.00	30.170 
23:55	79.0	79.0	82.1	79	71.9	0	0	---	0.00	30.170 

CoCoRaHS
IN-AL-39
A2 Web Hosting
Creative Commons License
GoDaddy
search engine by freefind advanced

loaded 2018-11-17 00:14:18 • last modified 2010-11-18 10:43:29
Privacy PolicyDisclaimer
• wx.awcolley.com is powered by PmWiki v.2002016 •
• all content (unless otherwise noted) © 2018 A W Colley